Terminal Aerodrome Forecast
Issued by NWS

Home | Current Version | Previous Version | Text Only | Print | Product List | Glossary On
Versions: 1 2 3 4 5 6 7 8 9 10 11 12 13 14 15 16 17 18
000
FTUS43 KGRB 241700
TAFATW
TAF
KATW 241720Z 2418/2518 24007KT 2SM BR OVC004
      TEMPO 2418/2420 1SM BR OVC002
     FM242000 20005KT P6SM BKN010
     FM250100 20005KT 5SM BR SCT030
     FM250800 26005KT 5SM BR SCT012
     FM251300 29013KT P6SM SCT025=

USA.gov is the U.S. government's official web portal to all federal, state and local government web resources and services.